createdAt,value
2019-03-03T00:00:56.870Z,0.00
2019-03-03T00:01:56.860Z,0.00
2019-03-03T00:02:56.866Z,0.00
2019-03-03T00:03:56.848Z,0.00
2019-03-03T00:04:56.853Z,0.00
2019-03-03T00:05:56.830Z,0.00
2019-03-03T00:06:56.806Z,0.00
2019-03-03T00:07:56.817Z,0.00
2019-03-03T00:08:56.790Z,0.00
2019-03-03T00:09:56.793Z,0.00
2019-03-03T00:10:56.764Z,0.00
2019-03-03T00:11:56.757Z,0.00
2019-03-03T00:12:56.731Z,0.00
2019-03-03T00:13:56.717Z,0.00
2019-03-03T00:14:58.819Z,0.00
2019-03-03T00:15:56.723Z,0.00
2019-03-03T00:16:56.696Z,0.00
2019-03-03T00:17:56.681Z,0.00
2019-03-03T00:18:56.673Z,0.00
2019-03-03T00:19:56.652Z,0.00
2019-03-03T00:20:56.679Z,0.00
2019-03-03T00:21:56.664Z,0.00
2019-03-03T00:22:56.631Z,0.00
2019-03-03T00:23:56.710Z,0.00
2019-03-03T00:24:56.623Z,0.00
2019-03-03T00:25:56.591Z,0.00
2019-03-03T00:26:56.605Z,0.00
2019-03-03T00:27:56.582Z,0.00
2019-03-03T00:28:56.559Z,0.00
2019-03-03T00:29:56.564Z,0.00
2019-03-03T00:30:56.576Z,0.00
2019-03-03T00:31:56.568Z,0.00
2019-03-03T00:32:56.539Z,0.00
2019-03-03T00:33:56.519Z,0.00
2019-03-03T00:34:56.502Z,0.00
2019-03-03T00:35:56.504Z,0.00
2019-03-03T00:36:56.473Z,0.00
2019-03-03T00:37:56.501Z,0.00
2019-03-03T00:38:56.451Z,0.00
2019-03-03T00:39:56.436Z,0.00
2019-03-03T00:40:56.444Z,0.00
2019-03-03T00:41:56.428Z,0.00
2019-03-03T00:42:56.436Z,0.00
2019-03-03T00:43:56.417Z,0.00
2019-03-03T00:44:56.387Z,0.00
2019-03-03T00:45:56.371Z,0.00
2019-03-03T00:46:56.359Z,0.00
2019-03-03T00:47:56.374Z,0.00
2019-03-03T00:48:56.738Z,0.00
2019-03-03T00:49:56.350Z,0.00
2019-03-03T00:50:56.322Z,0.00
2019-03-03T00:51:56.315Z,0.00
2019-03-03T00:52:56.309Z,0.00
2019-03-03T00:53:56.307Z,0.00
2019-03-03T00:54:56.284Z,0.00
2019-03-03T00:55:56.275Z,0.00
2019-03-03T00:56:56.240Z,0.00
2019-03-03T00:57:56.244Z,0.00
2019-03-03T00:58:56.251Z,0.00
2019-03-03T00:59:56.234Z,0.00
2019-03-03T01:00:56.216Z,0.00
2019-03-03T01:01:56.220Z,0.00
2019-03-03T01:02:56.193Z,0.00
2019-03-03T01:03:56.203Z,0.00
2019-03-03T01:04:56.166Z,0.00
2019-03-03T01:05:56.155Z,0.00
2019-03-03T01:06:56.153Z,0.00
2019-03-03T01:07:56.141Z,0.00
2019-03-03T01:08:56.158Z,0.00
2019-03-03T01:09:56.109Z,0.00
2019-03-03T01:10:56.127Z,0.00
2019-03-03T01:11:56.085Z,0.00
2019-03-03T01:12:56.090Z,0.00
2019-03-03T01:13:56.103Z,0.00
2019-03-03T01:14:56.063Z,0.00
2019-03-03T01:15:56.050Z,0.00
2019-03-03T01:16:56.028Z,0.00
2019-03-03T01:17:56.017Z,0.00
2019-03-03T01:18:56.020Z,0.00
2019-03-03T01:19:56.038Z,0.00
2019-03-03T01:20:55.996Z,0.00
2019-03-03T01:21:56.026Z,0.00
2019-03-03T01:22:55.981Z,0.00
2019-03-03T01:23:56.020Z,0.00
2019-03-03T01:24:55.965Z,0.00
2019-03-03T01:25:55.960Z,0.00
2019-03-03T01:26:55.941Z,0.00
2019-03-03T01:27:55.946Z,0.00
2019-03-03T01:28:55.901Z,0.00
2019-03-03T01:29:55.923Z,0.00
2019-03-03T01:30:55.878Z,0.00
2019-03-03T01:31:55.868Z,0.00
2019-03-03T01:32:55.880Z,0.00
2019-03-03T01:33:55.859Z,0.00
2019-03-03T01:34:55.880Z,0.00
2019-03-03T01:35:55.837Z,0.00
2019-03-03T01:36:55.815Z,0.00
2019-03-03T01:37:55.804Z,0.00
2019-03-03T01:38:55.806Z,0.00
2019-03-03T01:39:55.809Z,0.00
2019-03-03T01:40:55.775Z,0.00
2019-03-03T01:41:55.762Z,0.00
2019-03-03T01:42:55.756Z,0.00
2019-03-03T01:43:55.737Z,0.00
2019-03-03T01:44:55.746Z,0.00
2019-03-03T01:45:55.722Z,0.00
2019-03-03T01:46:55.715Z,0.00
2019-03-03T01:47:55.707Z,0.00
2019-03-03T01:48:55.685Z,0.00
2019-03-03T01:49:55.697Z,0.00
2019-03-03T01:50:55.662Z,0.00
2019-03-03T01:51:55.648Z,0.00
2019-03-03T01:52:55.652Z,0.00
2019-03-03T01:53:55.639Z,0.00
2019-03-03T01:54:55.624Z,0.00
2019-03-03T01:55:55.600Z,0.00
2019-03-03T01:56:55.606Z,0.00
2019-03-03T01:57:55.603Z,0.00
2019-03-03T01:58:55.581Z,0.00
2019-03-03T01:59:55.598Z,0.00
2019-03-03T02:00:55.554Z,0.00
2019-03-03T02:01:55.535Z,0.00
2019-03-03T02:02:55.538Z,0.00
2019-03-03T02:03:55.513Z,0.00
2019-03-03T02:04:55.520Z,0.00
2019-03-03T02:05:55.518Z,0.00
2019-03-03T02:06:55.494Z,0.00
2019-03-03T02:07:55.539Z,0.00
2019-03-03T02:08:55.467Z,0.00
2019-03-03T02:09:55.452Z,0.00
2019-03-03T02:10:55.483Z,0.00
2019-03-03T02:11:55.443Z,0.00
2019-03-03T02:12:55.420Z,0.00
2019-03-03T02:13:55.406Z,0.00
2019-03-03T02:14:55.397Z,0.00
2019-03-03T02:15:55.386Z,0.00
2019-03-03T02:16:55.409Z,0.00
2019-03-03T02:17:55.391Z,0.00
2019-03-03T02:18:55.367Z,0.00
2019-03-03T02:19:55.362Z,0.00
2019-03-03T02:20:55.337Z,0.00
2019-03-03T02:21:55.330Z,0.00
2019-03-03T02:22:55.338Z,0.00
2019-03-03T02:23:55.302Z,0.00
2019-03-03T02:24:55.298Z,0.00
2019-03-03T02:25:55.300Z,0.00
2019-03-03T02:26:55.269Z,0.00
2019-03-03T02:27:55.373Z,0.00
2019-03-03T02:28:55.260Z,0.00
2019-03-03T02:29:55.238Z,0.00
2019-03-03T02:30:55.234Z,0.00
2019-03-03T02:31:55.225Z,0.00
2019-03-03T02:32:55.224Z,0.00
2019-03-03T02:33:55.190Z,0.00
2019-03-03T02:34:55.181Z,0.00
2019-03-03T02:35:55.184Z,0.00
2019-03-03T02:36:55.174Z,0.00
2019-03-03T02:37:55.179Z,0.00
2019-03-03T02:38:55.148Z,0.00
2019-03-03T02:39:55.141Z,0.00
2019-03-03T02:40:55.132Z,0.00
2019-03-03T02:41:55.101Z,0.00
2019-03-03T02:42:55.102Z,0.00
2019-03-03T02:43:55.110Z,0.00
2019-03-03T02:44:55.101Z,0.00
2019-03-03T02:45:55.056Z,0.00
2019-03-03T02:46:55.051Z,0.00
2019-03-03T02:47:55.046Z,0.00
2019-03-03T02:48:55.049Z,0.00
2019-03-03T02:49:55.033Z,0.00
2019-03-03T02:50:55.054Z,0.00
2019-03-03T02:51:55.014Z,0.00
2019-03-03T02:52:54.982Z,0.00
2019-03-03T02:53:54.971Z,0.00
2019-03-03T02:54:54.959Z,0.00
2019-03-03T02:55:54.984Z,0.00
2019-03-03T02:56:54.951Z,0.00
2019-03-03T02:57:54.932Z,0.00
2019-03-03T02:58:54.909Z,0.00
2019-03-03T02:59:54.902Z,0.00
2019-03-03T03:00:54.924Z,0.00
2019-03-03T03:01:54.890Z,0.00
2019-03-03T03:02:54.886Z,0.00
2019-03-03T03:03:54.964Z,0.00
2019-03-03T03:04:54.848Z,0.00
2019-03-03T03:05:54.878Z,0.00
2019-03-03T03:06:54.834Z,0.00
2019-03-03T03:07:54.821Z,0.00
2019-03-03T03:08:54.821Z,0.00
2019-03-03T03:09:54.869Z,0.00
2019-03-03T03:10:54.791Z,0.00
2019-03-03T03:11:54.795Z,0.00
2019-03-03T03:12:54.755Z,0.00
2019-03-03T03:13:54.756Z,0.00
2019-03-03T03:14:54.760Z,0.00
2019-03-03T03:15:54.743Z,0.00
2019-03-03T03:16:54.737Z,0.00
2019-03-03T03:17:54.711Z,0.00
2019-03-03T03:18:54.692Z,0.00
2019-03-03T03:19:54.692Z,0.00
2019-03-03T03:20:54.699Z,0.00
2019-03-03T03:21:54.693Z,0.00
2019-03-03T03:22:54.685Z,0.00
2019-03-03T03:23:54.653Z,0.00
2019-03-03T03:24:54.638Z,0.00
2019-03-03T03:25:54.633Z,0.00
2019-03-03T03:26:54.612Z,0.00
2019-03-03T03:27:54.623Z,0.00
2019-03-03T03:28:54.635Z,0.00
2019-03-03T03:29:54.600Z,0.00
2019-03-03T03:30:54.563Z,0.00
2019-03-03T03:31:54.574Z,0.00
2019-03-03T03:32:54.552Z,0.00
2019-03-03T03:33:54.544Z,0.00
2019-03-03T03:34:54.566Z,0.00
2019-03-03T03:35:54.537Z,0.00
2019-03-03T03:36:54.507Z,0.00
2019-03-03T03:37:54.506Z,0.00
2019-03-03T03:38:54.476Z,0.00
2019-03-03T03:39:54.492Z,0.00
2019-03-03T03:40:54.471Z,0.00
2019-03-03T03:41:54.451Z,0.00
2019-03-03T03:42:54.438Z,0.00
2019-03-03T03:43:54.435Z,0.00
2019-03-03T03:44:54.408Z,0.00
2019-03-03T03:45:54.423Z,0.00
2019-03-03T03:46:54.396Z,0.00
2019-03-03T03:47:54.386Z,0.00
2019-03-03T03:48:54.375Z,0.00
2019-03-03T03:49:54.371Z,0.00
2019-03-03T03:50:54.379Z,0.00
2019-03-03T03:51:55.291Z,0.00
2019-03-03T03:52:54.352Z,0.00
2019-03-03T03:53:54.325Z,0.00
2019-03-03T03:54:54.326Z,0.00
2019-03-03T03:55:54.325Z,0.00
2019-03-03T03:56:54.278Z,0.00
2019-03-03T03:57:54.280Z,0.00
2019-03-03T03:58:54.263Z,0.00
2019-03-03T03:59:54.267Z,0.00
2019-03-03T04:00:54.261Z,0.00
2019-03-03T04:01:54.249Z,0.00
2019-03-03T04:02:54.238Z,0.00
2019-03-03T04:03:54.227Z,0.00
2019-03-03T04:04:54.226Z,0.00
2019-03-03T04:05:54.205Z,0.00
2019-03-03T04:06:54.176Z,0.00
2019-03-03T04:07:54.166Z,0.00
2019-03-03T04:08:54.183Z,0.00
2019-03-03T04:09:54.136Z,0.00
2019-03-03T04:10:54.121Z,0.00
2019-03-03T04:11:54.120Z,0.00
2019-03-03T04:12:54.116Z,0.00
2019-03-03T04:13:54.095Z,0.00
2019-03-03T04:14:54.118Z,0.00
2019-03-03T04:15:54.082Z,0.00
2019-03-03T04:16:54.059Z,0.00
2019-03-03T04:17:54.057Z,0.00
2019-03-03T04:18:54.046Z,0.00
2019-03-03T04:19:54.054Z,0.00
2019-03-03T04:20:54.018Z,0.00
2019-03-03T04:21:54.014Z,0.00
2019-03-03T04:22:53.995Z,0.00
2019-03-03T04:23:53.991Z,0.00
2019-03-03T04:24:54.010Z,0.00
2019-03-03T04:25:53.968Z,0.00
2019-03-03T04:26:53.964Z,0.00
2019-03-03T04:27:53.951Z,0.00
2019-03-03T04:28:53.930Z,0.00
2019-03-03T04:29:53.943Z,0.00
2019-03-03T04:30:53.979Z,0.00
2019-03-03T04:31:53.900Z,0.00
2019-03-03T04:32:53.900Z,0.00
2019-03-03T04:33:53.891Z,0.00
2019-03-03T04:34:53.887Z,0.00
2019-03-03T04:35:53.845Z,0.00
2019-03-03T04:36:53.847Z,0.00
2019-03-03T04:37:53.841Z,0.00
2019-03-03T04:38:53.827Z,0.00
2019-03-03T04:39:53.815Z,0.00
2019-03-03T04:40:53.817Z,0.00
2019-03-03T04:41:53.782Z,0.00
2019-03-03T04:42:53.775Z,0.00
2019-03-03T04:43:53.773Z,0.00
2019-03-03T04:44:53.771Z,0.00
2019-03-03T04:45:53.776Z,0.00
2019-03-03T04:46:53.747Z,0.00
2019-03-03T04:47:53.724Z,0.00
2019-03-03T04:48:53.705Z,0.00
2019-03-03T04:49:53.712Z,0.00
2019-03-03T04:50:53.719Z,0.00
2019-03-03T04:51:53.679Z,0.00
2019-03-03T04:52:53.659Z,0.00
2019-03-03T04:53:53.652Z,0.00
2019-03-03T04:54:53.645Z,0.00
2019-03-03T04:55:53.661Z,0.00
2019-03-03T04:56:53.647Z,0.00
2019-03-03T04:57:53.618Z,0.00
2019-03-03T04:58:53.605Z,0.00
2019-03-03T04:59:53.580Z,0.00
2019-03-03T05:00:53.580Z,0.00
2019-03-03T05:01:53.599Z,0.00
2019-03-03T05:02:53.560Z,0.00
2019-03-03T05:03:53.554Z,0.00
2019-03-03T05:04:53.541Z,0.00
2019-03-03T05:05:53.525Z,0.00
2019-03-03T05:06:53.516Z,0.00
2019-03-03T05:07:53.539Z,0.00
2019-03-03T05:08:53.503Z,0.00
2019-03-03T05:09:53.498Z,0.00
2019-03-03T05:10:53.481Z,0.00
2019-03-03T05:11:53.454Z,0.00
2019-03-03T05:12:53.475Z,0.00
2019-03-03T05:13:53.439Z,0.00
2019-03-03T05:14:53.423Z,0.00
2019-03-03T05:15:53.420Z,0.00
2019-03-03T05:16:53.406Z,0.00
2019-03-03T05:17:53.403Z,0.00
2019-03-03T05:18:53.403Z,0.00
2019-03-03T05:19:53.395Z,0.00
2019-03-03T05:20:53.354Z,0.00
2019-03-03T05:21:53.361Z,0.00
2019-03-03T05:22:53.371Z,0.00
2019-03-03T05:23:53.330Z,0.00
2019-03-03T05:24:53.337Z,0.00
2019-03-03T05:25:53.297Z,0.00
2019-03-03T05:26:53.295Z,0.00
2019-03-03T05:27:53.296Z,0.00
2019-03-03T05:28:53.274Z,0.00
2019-03-03T05:29:53.285Z,0.00
2019-03-03T05:30:53.256Z,0.00
2019-03-03T05:31:53.230Z,0.00
2019-03-03T05:32:53.234Z,0.00
2019-03-03T05:33:53.218Z,0.00
2019-03-03T05:34:53.216Z,0.00
2019-03-03T05:35:53.207Z,0.00
2019-03-03T05:36:53.204Z,0.00
2019-03-03T05:37:53.182Z,0.00
2019-03-03T05:38:53.159Z,0.00
2019-03-03T05:39:53.178Z,0.00
2019-03-03T05:40:53.153Z,0.00
2019-03-03T05:41:53.138Z,0.00
2019-03-03T05:42:53.135Z,0.00
2019-03-03T05:43:53.108Z,0.00
2019-03-03T05:44:53.145Z,0.00
2019-03-03T05:45:53.090Z,0.00
2019-03-03T05:46:53.072Z,0.00
2019-03-03T05:47:53.083Z,0.00
2019-03-03T05:48:53.061Z,0.00
2019-03-03T05:49:53.057Z,0.00
2019-03-03T05:50:53.056Z,0.00
2019-03-03T05:51:53.012Z,0.00
2019-03-03T05:52:53.019Z,0.00
2019-03-03T05:53:53.015Z,0.00
2019-03-03T05:54:52.995Z,5.62
2019-03-03T05:55:53.008Z,5.62
2019-03-03T05:56:52.979Z,5.62
2019-03-03T05:57:52.952Z,5.62
2019-03-03T05:58:52.942Z,5.62
2019-03-03T05:59:52.946Z,5.62
2019-03-03T06:00:52.927Z,5.62
2019-03-03T06:01:52.929Z,5.62
2019-03-03T06:02:52.904Z,5.62
2019-03-03T06:03:52.882Z,5.62
2019-03-03T06:04:52.874Z,5.62
2019-03-03T06:05:52.877Z,5.62
2019-03-03T06:06:52.884Z,5.62
2019-03-03T06:07:52.862Z,5.62
2019-03-03T06:08:52.843Z,5.62
2019-03-03T06:09:52.823Z,5.62
2019-03-03T06:10:52.807Z,11.25
2019-03-03T06:11:52.819Z,5.62
2019-03-03T06:12:52.835Z,5.62
2019-03-03T06:13:52.783Z,5.62
2019-03-03T06:14:52.779Z,5.62
2019-03-03T06:15:52.763Z,5.62
2019-03-03T06:16:52.761Z,5.62
2019-03-03T06:17:52.742Z,5.62
2019-03-03T06:18:52.806Z,5.62
2019-03-03T06:19:52.711Z,5.62
2019-03-03T06:20:52.710Z,5.62
2019-03-03T06:21:52.695Z,5.62
2019-03-03T06:22:52.707Z,5.62
2019-03-03T06:23:52.674Z,5.62
2019-03-03T06:24:52.662Z,5.62
2019-03-03T06:25:52.675Z,11.25
2019-03-03T06:26:52.628Z,11.25
2019-03-03T06:27:52.627Z,11.25
2019-03-03T06:28:52.648Z,11.25
2019-03-03T06:29:52.634Z,16.88
2019-03-03T06:30:52.612Z,16.88
2019-03-03T06:31:52.581Z,22.50
2019-03-03T06:32:52.565Z,22.50
2019-03-03T06:33:52.561Z,22.50
2019-03-03T06:34:52.552Z,16.88
2019-03-03T06:35:52.861Z,16.88
2019-03-03T06:36:52.527Z,16.88
2019-03-03T06:37:52.565Z,16.88
2019-03-03T06:38:52.563Z,16.88
2019-03-03T06:39:52.523Z,16.88
2019-03-03T06:40:52.482Z,22.50
2019-03-03T06:41:52.475Z,22.50
2019-03-03T06:42:52.463Z,22.50
2019-03-03T06:43:52.441Z,22.50
2019-03-03T06:44:52.441Z,22.50
2019-03-03T06:45:52.450Z,28.12
2019-03-03T06:46:52.411Z,33.75
2019-03-03T06:47:52.412Z,39.38
2019-03-03T06:48:52.406Z,39.38
2019-03-03T06:49:52.415Z,45.00
2019-03-03T06:50:53.026Z,45.00
2019-03-03T06:51:52.364Z,39.38
2019-03-03T06:52:52.345Z,39.38
2019-03-03T06:53:52.335Z,45.00
2019-03-03T06:54:52.345Z,45.00
2019-03-03T06:55:52.320Z,45.00
2019-03-03T06:56:52.310Z,45.00
2019-03-03T06:57:52.296Z,45.00
2019-03-03T06:58:52.279Z,39.38
2019-03-03T06:59:52.333Z,45.00
2019-03-03T07:00:52.262Z,45.00
2019-03-03T07:01:52.260Z,50.62
2019-03-03T07:02:52.249Z,50.62
2019-03-03T07:03:52.227Z,56.25
2019-03-03T07:04:52.218Z,61.88
2019-03-03T07:05:52.233Z,61.88
2019-03-03T07:06:52.189Z,56.25
2019-03-03T07:07:52.190Z,61.88
2019-03-03T07:08:52.183Z,67.50
2019-03-03T07:09:52.185Z,67.50
2019-03-03T07:10:52.158Z,67.50
2019-03-03T07:11:52.164Z,67.50
2019-03-03T07:12:52.125Z,73.12
2019-03-03T07:13:52.128Z,78.75
2019-03-03T07:14:52.130Z,78.75
2019-03-03T07:15:52.091Z,78.75
2019-03-03T07:16:52.096Z,78.75
2019-03-03T07:17:52.109Z,90.00
2019-03-03T07:18:52.057Z,84.38
2019-03-03T07:19:52.057Z,78.75
2019-03-03T07:20:52.061Z,78.75
2019-03-03T07:21:52.038Z,78.75
2019-03-03T07:22:52.044Z,73.12
2019-03-03T07:23:52.006Z,73.12
2019-03-03T07:24:51.992Z,78.75
2019-03-03T07:25:51.993Z,78.75
2019-03-03T07:26:51.979Z,84.38
2019-03-03T07:27:52.007Z,95.62
2019-03-03T07:28:51.952Z,106.88
2019-03-03T07:29:51.935Z,106.88
2019-03-03T07:30:51.933Z,106.88
2019-03-03T07:31:51.926Z,101.25
2019-03-03T07:32:51.922Z,106.88
2019-03-03T07:33:51.905Z,106.88
2019-03-03T07:34:51.895Z,106.88
2019-03-03T07:35:51.940Z,106.88
2019-03-03T07:36:51.867Z,112.50
2019-03-03T07:37:51.898Z,118.12
2019-03-03T07:38:51.888Z,123.75
2019-03-03T07:39:53.400Z,129.38
2019-03-03T07:40:51.835Z,123.75
2019-03-03T07:41:51.855Z,129.38
2019-03-03T07:42:51.804Z,140.62
2019-03-03T07:43:51.800Z,140.62
2019-03-03T07:44:51.771Z,140.62
2019-03-03T07:45:51.776Z,140.62
2019-03-03T07:46:51.788Z,146.25
2019-03-03T07:47:51.763Z,168.75
2019-03-03T07:48:51.760Z,185.62
2019-03-03T07:49:51.723Z,174.38
2019-03-03T07:50:51.710Z,168.75
2019-03-03T07:51:51.724Z,163.12
2019-03-03T07:52:51.698Z,157.50
2019-03-03T07:53:51.716Z,151.88
2019-03-03T07:54:51.670Z,146.25
2019-03-03T07:55:51.667Z,140.62
2019-03-03T07:56:51.653Z,146.25
2019-03-03T07:57:51.644Z,151.88
2019-03-03T07:58:51.618Z,151.88
2019-03-03T07:59:51.646Z,157.50
2019-03-03T08:00:51.608Z,163.12
2019-03-03T08:01:51.587Z,185.62
2019-03-03T08:02:51.586Z,213.75
2019-03-03T08:03:51.599Z,225.00
2019-03-03T08:04:51.568Z,253.12
2019-03-03T08:05:51.580Z,281.25
2019-03-03T08:06:51.545Z,270.00
2019-03-03T08:07:51.517Z,230.62
2019-03-03T08:08:51.535Z,213.75
2019-03-03T08:09:51.522Z,213.75
2019-03-03T08:10:51.509Z,219.38
2019-03-03T08:11:51.484Z,258.75
2019-03-03T08:12:51.492Z,292.50
2019-03-03T08:13:51.467Z,320.62
2019-03-03T08:14:51.460Z,292.50
2019-03-03T08:15:51.518Z,258.75
2019-03-03T08:16:51.425Z,247.50
2019-03-03T08:17:51.422Z,275.62
2019-03-03T08:18:51.428Z,343.12
2019-03-03T08:19:51.392Z,376.88
2019-03-03T08:20:51.401Z,365.62
2019-03-03T08:21:51.373Z,365.62
2019-03-03T08:22:51.356Z,320.62
2019-03-03T08:23:51.362Z,303.75
2019-03-03T08:24:51.468Z,309.38
2019-03-03T08:25:51.361Z,320.62
2019-03-03T08:26:51.314Z,360.00
2019-03-03T08:27:51.295Z,354.38
2019-03-03T08:28:51.288Z,337.50
2019-03-03T08:29:51.277Z,320.62
2019-03-03T08:30:51.367Z,326.25
2019-03-03T08:31:51.275Z,348.75
2019-03-03T08:32:51.256Z,371.25
2019-03-03T08:33:51.230Z,388.12
2019-03-03T08:34:51.219Z,405.00
2019-03-03T08:35:51.310Z,405.00
2019-03-03T08:36:51.211Z,388.12
2019-03-03T08:37:51.215Z,393.75
2019-03-03T08:38:51.187Z,315.00
2019-03-03T08:39:51.178Z,281.25
2019-03-03T08:40:51.156Z,292.50
2019-03-03T08:41:51.165Z,270.00
2019-03-03T08:42:51.137Z,275.62
2019-03-03T08:43:51.143Z,253.12
2019-03-03T08:44:51.124Z,208.12
2019-03-03T08:45:51.602Z,185.62
2019-03-03T08:46:51.097Z,208.12
2019-03-03T08:47:53.337Z,230.62
2019-03-03T08:48:51.078Z,230.62
2019-03-03T08:49:51.078Z,253.12
2019-03-03T08:50:51.096Z,298.12
2019-03-03T08:51:51.033Z,303.75
2019-03-03T08:52:51.034Z,281.25
2019-03-03T08:53:51.012Z,286.88
2019-03-03T08:54:51.006Z,298.12
2019-03-03T08:55:51.003Z,309.38
2019-03-03T08:56:51.034Z,241.88
2019-03-03T08:57:50.981Z,230.62
2019-03-03T08:58:50.988Z,219.38
2019-03-03T08:59:50.943Z,185.62
2019-03-03T09:00:50.947Z,191.25
2019-03-03T09:01:50.927Z,196.88
2019-03-03T09:02:50.956Z,213.75
2019-03-03T09:03:50.926Z,258.75
2019-03-03T09:04:50.915Z,309.38
2019-03-03T09:05:50.887Z,348.75
2019-03-03T09:06:50.884Z,331.88
2019-03-03T09:07:50.902Z,298.12
2019-03-03T09:08:50.876Z,264.38
2019-03-03T09:09:50.849Z,241.88
2019-03-03T09:10:50.846Z,230.62
2019-03-03T09:11:50.828Z,213.75
2019-03-03T09:12:50.826Z,185.62
2019-03-03T09:13:50.790Z,163.12
2019-03-03T09:14:50.781Z,163.12
2019-03-03T09:15:50.779Z,202.50
2019-03-03T09:16:50.779Z,230.62
2019-03-03T09:17:50.773Z,213.75
2019-03-03T09:18:50.774Z,180.00
2019-03-03T09:19:50.728Z,146.25
2019-03-03T09:20:50.713Z,129.38
2019-03-03T09:21:50.707Z,140.62
2019-03-03T09:22:50.701Z,151.88
2019-03-03T09:23:50.713Z,151.88
2019-03-03T09:24:50.677Z,140.62
2019-03-03T09:25:50.651Z,123.75
2019-03-03T09:26:50.642Z,123.75
2019-03-03T09:27:50.639Z,140.62
2019-03-03T09:28:50.629Z,157.50
2019-03-03T09:29:50.656Z,163.12
2019-03-03T09:30:50.641Z,185.62
2019-03-03T09:31:50.598Z,202.50
2019-03-03T09:32:50.586Z,219.38
2019-03-03T09:33:50.576Z,230.62
2019-03-03T09:34:50.591Z,236.25
2019-03-03T09:35:50.607Z,230.62
2019-03-03T09:36:50.540Z,219.38
2019-03-03T09:37:50.526Z,202.50
2019-03-03T09:38:50.528Z,191.25
2019-03-03T09:39:50.513Z,185.62
2019-03-03T09:40:50.515Z,202.50
2019-03-03T09:41:50.521Z,202.50
2019-03-03T09:42:50.479Z,208.12
2019-03-03T09:43:50.454Z,213.75
2019-03-03T09:44:50.445Z,225.00
2019-03-03T09:45:50.431Z,236.25
2019-03-03T09:46:50.418Z,258.75
2019-03-03T09:47:50.450Z,264.38
2019-03-03T09:48:50.418Z,264.38
2019-03-03T09:49:50.404Z,270.00
2019-03-03T09:50:50.389Z,281.25
2019-03-03T09:51:50.449Z,286.88
2019-03-03T09:52:50.366Z,253.12
2019-03-03T09:53:50.399Z,247.50
2019-03-03T09:54:50.502Z,236.25
2019-03-03T09:55:50.334Z,236.25
2019-03-03T09:56:50.353Z,258.75
2019-03-03T09:57:50.355Z,281.25
2019-03-03T09:58:50.296Z,275.62
2019-03-03T09:59:50.298Z,281.25
2019-03-03T10:00:50.274Z,219.38
2019-03-03T10:01:50.268Z,196.88
2019-03-03T10:02:50.285Z,202.50
2019-03-03T10:03:50.242Z,185.62
2019-03-03T10:04:50.219Z,202.50
2019-03-03T10:05:50.210Z,213.75
2019-03-03T10:06:50.207Z,191.25
2019-03-03T10:07:50.211Z,191.25
2019-03-03T10:08:50.217Z,196.88
2019-03-03T10:09:50.176Z,213.75
2019-03-03T10:10:50.157Z,219.38
2019-03-03T10:11:50.154Z,241.88
2019-03-03T10:12:50.138Z,253.12
2019-03-03T10:13:50.129Z,236.25
2019-03-03T10:14:50.155Z,230.62
2019-03-03T10:15:50.115Z,241.88
2019-03-03T10:16:50.096Z,230.62
2019-03-03T10:17:50.081Z,225.00
2019-03-03T10:18:50.079Z,253.12
2019-03-03T10:19:50.064Z,264.38
2019-03-03T10:20:50.076Z,241.88
2019-03-03T10:21:50.043Z,236.25
2019-03-03T10:22:50.053Z,247.50
2019-03-03T10:23:50.040Z,219.38
2019-03-03T10:24:50.000Z,225.00
2019-03-03T10:25:49.999Z,241.88
2019-03-03T10:26:50.018Z,208.12
2019-03-03T10:27:49.982Z,191.25
2019-03-03T10:28:49.958Z,185.62
2019-03-03T10:29:49.954Z,180.00
2019-03-03T10:30:49.940Z,168.75
2019-03-03T10:31:49.937Z,168.75
2019-03-03T10:32:49.951Z,208.12
2019-03-03T10:33:49.928Z,219.38
2019-03-03T10:34:49.903Z,185.62
2019-03-03T10:35:49.883Z,191.25
2019-03-03T10:36:49.871Z,157.50
2019-03-03T10:37:49.887Z,146.25
2019-03-03T10:38:49.849Z,202.50
2019-03-03T10:39:49.868Z,270.00
2019-03-03T10:40:49.872Z,213.75
2019-03-03T10:41:49.825Z,168.75
2019-03-03T10:42:49.806Z,163.12
2019-03-03T10:43:49.864Z,157.50
2019-03-03T10:44:49.796Z,157.50
2019-03-03T10:45:49.777Z,196.88
2019-03-03T10:46:49.806Z,275.62
2019-03-03T10:47:49.764Z,275.62
2019-03-03T10:48:49.737Z,253.12
2019-03-03T10:49:49.742Z,213.75
2019-03-03T10:50:49.726Z,253.12
2019-03-03T10:51:49.712Z,258.75
2019-03-03T10:52:49.721Z,298.12
2019-03-03T10:53:49.692Z,365.62
2019-03-03T10:54:49.683Z,292.50
2019-03-03T10:55:49.670Z,253.12
2019-03-03T10:56:49.653Z,230.62
2019-03-03T10:57:49.665Z,258.75
2019-03-03T10:58:49.643Z,343.12
2019-03-03T10:59:54.941Z,427.50
2019-03-03T11:00:50.605Z,478.12
2019-03-03T11:01:49.607Z,540.00
2019-03-03T11:02:49.590Z,500.62
2019-03-03T11:03:49.576Z,438.75
2019-03-03T11:04:49.604Z,433.12
2019-03-03T11:05:49.559Z,489.38
2019-03-03T11:06:49.562Z,523.12
2019-03-03T11:07:49.535Z,455.62
2019-03-03T11:08:49.535Z,399.38
2019-03-03T11:09:49.698Z,343.12
2019-03-03T11:10:57.319Z,331.88
2019-03-03T11:11:50.508Z,309.38
2019-03-03T11:12:49.491Z,315.00
2019-03-03T11:13:49.472Z,438.75
2019-03-03T11:14:49.497Z,376.88
2019-03-03T11:15:49.446Z,281.25
2019-03-03T11:16:49.458Z,247.50
2019-03-03T11:17:49.454Z,292.50
2019-03-03T11:18:55.970Z,270.00
2019-03-03T11:19:50.423Z,236.25
2019-03-03T11:20:49.395Z,253.12
2019-03-03T11:21:49.372Z,264.38
2019-03-03T11:22:49.387Z,236.25
2019-03-03T11:23:49.365Z,241.88
2019-03-03T11:24:49.400Z,241.88
2019-03-03T11:25:49.399Z,236.25
2019-03-03T11:26:49.330Z,241.88
2019-03-03T11:27:49.313Z,264.38
2019-03-03T11:28:49.291Z,230.62
2019-03-03T11:29:49.299Z,258.75
2019-03-03T11:30:49.353Z,303.75
2019-03-03T11:31:49.273Z,309.38
2019-03-03T11:32:49.251Z,376.88
2019-03-03T11:33:49.254Z,320.62
2019-03-03T11:34:49.235Z,275.62
2019-03-03T11:35:49.231Z,292.50
2019-03-03T11:36:49.243Z,281.25
2019-03-03T11:37:49.222Z,270.00
2019-03-03T11:38:49.195Z,298.12
2019-03-03T11:39:49.175Z,270.00
2019-03-03T11:40:49.161Z,230.62
2019-03-03T11:41:49.156Z,247.50
2019-03-03T11:42:49.178Z,258.75
2019-03-03T11:43:49.141Z,241.88
2019-03-03T11:44:49.125Z,258.75
2019-03-03T11:45:49.125Z,286.88
2019-03-03T11:46:49.106Z,298.12
2019-03-03T11:47:49.099Z,241.88
2019-03-03T11:48:49.121Z,247.50
2019-03-03T11:49:49.081Z,213.75
2019-03-03T11:50:49.083Z,202.50
2019-03-03T11:51:49.037Z,185.62
2019-03-03T11:52:49.031Z,230.62
2019-03-03T11:53:49.018Z,247.50
2019-03-03T11:54:49.029Z,241.88
2019-03-03T11:55:49.006Z,213.75
2019-03-03T11:56:49.002Z,225.00
2019-03-03T11:57:48.985Z,241.88
2019-03-03T11:58:48.978Z,202.50
2019-03-03T11:59:48.985Z,185.62
2019-03-03T12:00:48.939Z,202.50
2019-03-03T12:01:48.940Z,208.12
2019-03-03T12:02:53.868Z,180.00
2019-03-03T12:03:49.912Z,180.00
2019-03-03T12:04:48.894Z,174.38
2019-03-03T12:05:48.948Z,163.12
2019-03-03T12:06:48.873Z,168.75
2019-03-03T12:07:48.868Z,163.12
2019-03-03T12:08:48.875Z,151.88
2019-03-03T12:09:48.852Z,163.12
2019-03-03T12:10:48.870Z,157.50
2019-03-03T12:11:48.829Z,146.25
2019-03-03T12:12:48.834Z,140.62
2019-03-03T12:13:48.799Z,146.25
2019-03-03T12:14:48.789Z,151.88
2019-03-03T12:15:48.789Z,151.88
2019-03-03T12:16:48.798Z,180.00
2019-03-03T12:17:48.769Z,225.00
2019-03-03T12:18:48.744Z,230.62
2019-03-03T12:19:48.742Z,208.12
2019-03-03T12:20:48.727Z,191.25
2019-03-03T12:21:48.738Z,219.38
2019-03-03T12:22:48.736Z,264.38
2019-03-03T12:23:48.683Z,253.12
2019-03-03T12:24:48.676Z,275.62
2019-03-03T12:25:48.664Z,292.50
2019-03-03T12:26:48.654Z,286.88
2019-03-03T12:27:48.671Z,298.12
2019-03-03T12:28:48.638Z,309.38
2019-03-03T12:29:48.640Z,315.00
2019-03-03T12:30:48.619Z,315.00
2019-03-03T12:31:50.728Z,320.62
2019-03-03T12:32:48.590Z,315.00
2019-03-03T12:33:48.590Z,326.25
2019-03-03T12:34:48.610Z,331.88
2019-03-03T12:35:48.585Z,315.00
2019-03-03T12:36:48.549Z,309.38
2019-03-03T12:37:48.538Z,315.00
2019-03-03T12:38:48.532Z,315.00
2019-03-03T12:39:48.567Z,315.00
2019-03-03T12:40:48.514Z,309.38
2019-03-03T12:41:48.502Z,298.12
2019-03-03T12:42:48.489Z,286.88
2019-03-03T12:43:48.467Z,275.62
2019-03-03T12:44:48.468Z,275.62
2019-03-03T12:45:48.809Z,275.62
2019-03-03T12:46:48.851Z,270.00
2019-03-03T12:47:48.432Z,270.00
2019-03-03T12:48:48.427Z,292.50
2019-03-03T12:49:48.402Z,315.00
2019-03-03T12:50:48.384Z,331.88
2019-03-03T12:51:48.960Z,337.50
2019-03-03T12:52:48.376Z,331.88
2019-03-03T12:53:48.360Z,326.25
2019-03-03T12:54:48.358Z,326.25